Time;durP1;ratioP1;P1;durP2;ratioP2;P2;SDS_P1;SDS_P2;PMS_P1;PMS_P2;Temp;Humidity;BMP_temperature;BMP_pressure;BME280_temperature;BME280_humidity;BME280_pressure;Samples;Min_cycle;Max_cycle;Signal;HPM_P1;HPM_P2
2023/10/06 00:03:04;;;;;;;2.85;0.80;;;7.40;99.90;;;;;;5058583;28;20265;-86
2023/10/06 00:05:33;;;;;;;2.50;0.70;;;7.50;99.90;;;;;;5052093;28;20185;-85
2023/10/06 00:08:04;;;;;;;0.65;0.43;;;7.40;99.90;;;;;;5066399;28;20614;-85
2023/10/06 00:10:32;;;;;;;1.55;0.70;;;7.30;99.90;;;;;;5064420;28;20281;-87
2023/10/06 00:13:01;;;;;;;1.23;0.70;;;7.40;99.90;;;;;;5042806;28;20716;-84
2023/10/06 00:15:38;;;;;;;4.75;0.98;;;7.40;99.90;;;;;;5063543;28;20251;-86
2023/10/06 00:18:12;;;;;;;1.40;0.65;;;7.50;99.90;;;;;;5099497;28;20233;-86
2023/10/06 00:20:48;;;;;;;1.58;0.60;;;7.40;99.90;;;;;;5048687;28;20176;-87
2023/10/06 00:23:23;;;;;;;1.23;0.70;;;7.40;99.90;;;;;;5052483;28;20199;-87
2023/10/06 00:25:51;;;;;;;0.98;0.50;;;7.30;99.90;;;;;;5067593;28;20876;-86
2023/10/06 00:28:20;;;;;;;1.33;0.60;;;7.30;99.90;;;;;;5066363;28;20259;-87
2023/10/06 00:30:48;;;;;;;1.17;0.55;;;7.30;99.90;;;;;;5058485;28;20216;-87
2023/10/06 00:33:17;;;;;;;3.00;0.60;;;7.30;99.90;;;;;;5052448;28;20177;-86
2023/10/06 00:35:48;;;;;;;3.95;0.55;;;7.30;99.90;;;;;;5052967;28;20263;-86
2023/10/06 00:38:18;;;;;;;0.73;0.43;;;7.10;99.90;;;;;;5075018;28;20198;-87
2023/10/06 00:40:51;;;;;;;1.52;0.65;;;7.00;99.90;;;;;;5033957;28;20273;-86
2023/10/06 00:43:34;;;;;;;1.55;0.68;;;7.00;99.90;;;;;;5041960;28;20224;-87
2023/10/06 00:46:06;;;;;;;2.38;0.47;;;7.10;99.90;;;;;;5068519;28;20192;-86
2023/10/06 00:48:38;;;;;;;1.95;0.50;;;7.00;99.90;;;;;;5057481;28;20228;-85
2023/10/06 00:51:21;;;;;;;1.33;0.65;;;6.90;99.90;;;;;;5049839;28;20225;-86
2023/10/06 00:53:52;;;;;;;1.15;0.50;;;7.00;99.90;;;;;;5055267;28;20646;-86
2023/10/06 00:56:23;;;;;;;0.95;0.50;;;6.90;99.90;;;;;;5050390;28;20177;-85
2023/10/06 00:58:55;;;;;;;0.73;0.52;;;6.90;99.90;;;;;;5048562;28;20200;-87
2023/10/06 01:01:23;;;;;;;3.33;0.70;;;6.90;99.90;;;;;;5054772;28;20227;-88
2023/10/06 01:04:01;;;;;;;0.95;0.50;;;6.80;99.90;;;;;;5058242;28;20233;-87
2023/10/06 01:06:38;;;;;;;0.95;0.60;;;6.60;99.90;;;;;;5049352;28;20189;-85
2023/10/06 01:09:16;;;;;;;2.33;0.80;;;6.70;99.90;;;;;;5048045;28;20185;-86
2023/10/06 01:11:45;;;;;;;2.38;0.60;;;6.80;99.90;;;;;;5051497;28;20259;-85
2023/10/06 01:14:36;;;;;;;2.00;0.60;;;6.40;99.90;;;;;;5081202;28;20192;-86
2023/10/06 01:17:19;;;;;;;3.28;0.70;;;6.20;99.90;;;;;;5049687;28;20846;-85
2023/10/06 01:19:52;;;;;;;1.13;0.40;;;6.20;99.90;;;;;;5049344;28;20186;-86
2023/10/06 01:22:30;;;;;;;0.82;0.43;;;6.10;99.90;;;;;;5068197;28;20197;-86
2023/10/06 01:24:58;;;;;;;1.63;0.50;;;6.20;99.90;;;;;;5060525;28;20654;-85
2023/10/06 01:27:28;;;;;;;1.75;0.80;;;6.10;99.90;;;;;;5065954;28;20278;-87
2023/10/06 01:32:46;;;;;;;4.03;0.75;;;5.70;99.90;;;;;;5059724;28;20270;-87
2023/10/06 01:35:18;;;;;;;1.50;0.52;;;6.00;99.90;;;;;;5070893;28;20195;-84
2023/10/06 01:37:50;;;;;;;2.60;0.60;;;6.00;99.90;;;;;;5056427;28;20215;-85
2023/10/06 01:42:52;;;;;;;2.28;0.63;;;5.90;99.90;;;;;;5056182;28;20671;-85
2023/10/06 01:45:22;;;;;;;1.20;0.70;;;6.00;99.90;;;;;;5060576;28;20212;-86
2023/10/06 01:47:56;;;;;;;1.27;0.60;;;5.90;99.90;;;;;;5060368;28;20229;-86
2023/10/06 01:50:27;;;;;;;3.08;0.63;;;5.90;99.90;;;;;;5071940;28;20204;-86
2023/10/06 01:52:58;;;;;;;2.33;0.50;;;6.00;99.90;;;;;;5067637;28;20220;-86
2023/10/06 01:55:26;;;;;;;3.20;0.73;;;6.00;99.90;;;;;;5054429;28;20209;-86
2023/10/06 01:57:54;;;;;;;2.03;0.50;;;5.90;99.90;;;;;;5070856;28;20643;-86
2023/10/06 02:00:26;;;;;;;1.23;0.60;;;5.90;99.90;;;;;;5071035;28;20193;-84
2023/10/06 02:02:54;;;;;;;1.42;0.57;;;5.80;99.90;;;;;;5099852;28;20203;-85
2023/10/06 02:05:21;;;;;;;2.42;0.55;;;5.70;99.90;;;;;;5068413;28;20227;-85
2023/10/06 02:07:49;;;;;;;1.05;0.50;;;5.60;99.90;;;;;;5069352;28;20181;-85
2023/10/06 02:10:18;;;;;;;4.53;0.70;;;5.80;99.90;;;;;;5056466;28;20208;-85
2023/10/06 02:12:46;;;;;;;1.40;0.60;;;5.90;99.90;;;;;;5069904;28;20203;-85
2023/10/06 02:15:13;;;;;;;0.88;0.60;;;5.70;99.90;;;;;;5056760;28;20661;-86
2023/10/06 02:17:41;;;;;;;1.23;0.50;;;5.70;99.90;;;;;;5059961;28;20196;-86
2023/10/06 02:20:29;;;;;;;2.03;0.60;;;5.70;99.90;;;;;;5056460;28;20231;-86
2023/10/06 02:22:58;;;;;;;2.17;0.60;;;5.80;99.90;;;;;;5054341;28;20189;-86
2023/10/06 02:25:26;;;;;;;1.33;0.50;;;5.60;99.90;;;;;;5052290;28;20267;-85
2023/10/06 02:27:54;;;;;;;3.83;0.50;;;5.80;99.90;;;;;;5050551;28;20571;-85
2023/10/06 02:30:33;;;;;;;1.65;0.65;;;5.70;99.90;;;;;;5050555;28;20204;-85
2023/10/06 02:33:01;;;;;;;1.98;0.55;;;5.50;99.90;;;;;;5051612;28;20208;-86
2023/10/06 02:35:29;;;;;;;1.00;0.43;;;5.40;99.90;;;;;;5050838;28;20275;-85
2023/10/06 02:37:57;;;;;;;4.32;0.70;;;5.40;99.90;;;;;;5062327;28;20185;-85
2023/10/06 02:40:43;;;;;;;0.68;0.50;;;5.50;99.90;;;;;;5052842;28;20181;-85
2023/10/06 02:43:20;;;;;;;1.30;0.43;;;5.50;99.90;;;;;;5093658;28;20192;-85
2023/10/06 02:45:47;;;;;;;2.33;0.60;;;5.40;99.90;;;;;;5063611;28;20306;-85
2023/10/06 02:48:17;;;;;;;1.95;0.70;;;5.30;99.90;;;;;;5058494;28;20221;-86
2023/10/06 02:50:49;;;;;;;2.20;0.57;;;5.30;99.90;;;;;;5082280;28;20749;-85
2023/10/06 02:53:23;;;;;;;4.22;0.60;;;5.10;99.90;;;;;;5066384;28;20576;-85
2023/10/06 02:56:05;;;;;;;2.70;0.47;;;5.30;99.90;;;;;;5066027;28;20191;-86
2023/10/06 02:58:33;;;;;;;5.82;0.52;;;5.20;99.90;;;;;;5067917;28;20602;-85
2023/10/06 03:01:04;;;;;;;2.22;0.43;;;5.10;99.90;;;;;;5065790;28;20181;-86
2023/10/06 03:03:33;;;;;;;2.67;0.60;;;5.00;99.90;;;;;;5062781;28;20379;-87
2023/10/06 03:06:07;;;;;;;2.05;0.55;;;5.20;99.90;;;;;;5062171;28;20243;-85
2023/10/06 03:08:41;;;;;;;3.65;0.68;;;5.20;99.90;;;;;;5055727;28;20189;-85
2023/10/06 03:11:12;;;;;;;1.27;0.50;;;5.30;99.90;;;;;;5050823;28;20191;-86
2023/10/06 03:13:47;;;;;;;2.88;0.60;;;5.50;99.90;;;;;;5058563;28;20227;-85
2023/10/06 03:16:19;;;;;;;3.15;0.95;;;5.50;99.90;;;;;;5058816;28;20295;-84
2023/10/06 03:18:52;;;;;;;3.17;0.77;;;5.30;99.90;;;;;;5062281;28;20235;-85
2023/10/06 03:21:19;;;;;;;1.00;0.52;;;5.30;99.90;;;;;;5066059;28;20205;-85
2023/10/06 03:23:57;;;;;;;1.45;0.70;;;5.10;99.90;;;;;;5063715;28;20208;-84
2023/10/06 03:26:34;;;;;;;3.15;0.50;;;5.30;99.90;;;;;;5103352;28;20238;-84
2023/10/06 03:29:11;;;;;;;1.15;0.45;;;5.20;99.90;;;;;;5051711;28;20192;-86
2023/10/06 03:31:45;;;;;;;2.50;0.50;;;5.30;99.90;;;;;;5059326;28;20205;-86
2023/10/06 03:34:20;;;;;;;3.13;0.63;;;5.30;99.90;;;;;;5066190;28;20200;-85
2023/10/06 03:36:56;;;;;;;1.35;0.57;;;5.30;99.90;;;;;;5056599;28;20728;-86
2023/10/06 03:39:31;;;;;;;1.33;0.60;;;5.20;99.90;;;;;;5066750;28;20180;-85
2023/10/06 03:42:01;;;;;;;1.80;0.82;;;5.20;99.90;;;;;;5066123;28;20200;-87
2023/10/06 03:44:30;;;;;;;2.45;0.55;;;5.10;99.90;;;;;;5065701;28;20622;-86
2023/10/06 03:47:01;;;;;;;3.65;0.70;;;5.20;99.90;;;;;;5059195;28;20225;-87
2023/10/06 03:49:33;;;;;;;3.90;0.57;;;5.00;99.90;;;;;;5050253;28;20185;-84
2023/10/06 03:52:09;;;;;;;1.13;0.60;;;5.00;99.90;;;;;;5051963;28;20205;-87
2023/10/06 03:54:37;;;;;;;2.40;0.70;;;5.00;99.90;;;;;;5068952;28;20192;-86
2023/10/06 03:57:05;;;;;;;2.05;0.65;;;5.00;99.90;;;;;;5058796;28;20713;-86
2023/10/06 03:59:33;;;;;;;4.90;0.73;;;4.90;99.90;;;;;;5056128;28;20670;-85
2023/10/06 04:02:02;;;;;;;4.22;0.77;;;4.90;99.90;;;;;;5060819;28;20189;-85
2023/10/06 04:04:31;;;;;;;2.78;0.70;;;4.70;99.90;;;;;;5054953;28;20192;-86
2023/10/06 04:06:58;;;;;;;2.95;0.43;;;4.90;99.90;;;;;;5048904;28;20254;-87
2023/10/06 04:09:30;;;;;;;1.70;0.63;;;5.00;99.90;;;;;;5050124;28;20239;-86
2023/10/06 04:12:01;;;;;;;1.83;0.63;;;5.00;99.90;;;;;;5062183;28;20220;-85
2023/10/06 04:14:32;;;;;;;4.75;0.80;;;4.90;99.90;;;;;;5048896;28;20181;-85
2023/10/06 04:17:02;;;;;;;0.73;0.43;;;5.00;99.90;;;;;;5058718;28;20192;-86
2023/10/06 04:19:30;;;;;;;1.90;0.63;;;5.00;99.90;;;;;;5066771;28;20192;-87
2023/10/06 04:21:58;;;;;;;1.70;0.47;;;4.90;99.90;;;;;;5064521;28;20192;-86
2023/10/06 04:24:25;;;;;;;1.42;0.55;;;4.90;99.90;;;;;;5054629;28;20272;-85
2023/10/06 04:26:52;;;;;;;1.95;0.82;;;4.90;99.90;;;;;;5055199;28;20671;-85
2023/10/06 04:29:20;;;;;;;2.08;0.40;;;4.80;99.90;;;;;;5050062;28;20197;-86
2023/10/06 04:31:51;;;;;;;2.38;0.50;;;4.80;99.90;;;;;;5071370;28;20205;-85
2023/10/06 04:34:22;;;;;;;1.70;0.68;;;5.00;99.90;;;;;;5051073;28;20500;-85
2023/10/06 04:36:51;;;;;;;1.52;0.70;;;5.00;99.90;;;;;;5068453;28;20192;-84
2023/10/06 04:39:19;;;;;;;1.48;0.60;;;4.90;99.90;;;;;;5056244;28;20216;-86
2023/10/06 04:41:47;;;;;;;3.72;0.50;;;4.60;99.90;;;;;;5063531;28;20854;-85
2023/10/06 04:44:14;;;;;;;1.33;0.52;;;4.40;99.90;;;;;;5064791;28;20216;-86
2023/10/06 04:46:42;;;;;;;2.70;0.63;;;4.40;99.90;;;;;;5052496;28;20233;-84
2023/10/06 04:49:11;;;;;;;1.30;0.60;;;4.50;99.90;;;;;;5060769;28;20227;-86
2023/10/06 04:51:39;;;;;;;1.00;0.47;;;4.40;99.90;;;;;;5064114;28;20767;-86
2023/10/06 04:54:08;;;;;;;6.32;0.60;;;4.60;99.90;;;;;;5058407;28;20224;-87
2023/10/06 04:56:36;;;;;;;5.03;0.63;;;4.60;99.90;;;;;;5050142;28;20184;-85
2023/10/06 04:59:05;;;;;;;1.10;0.57;;;4.60;99.90;;;;;;5048267;28;20205;-86
2023/10/06 05:01:34;;;;;;;1.55;0.60;;;4.50;99.90;;;;;;5049593;28;20185;-84
2023/10/06 05:04:06;;;;;;;2.80;0.50;;;4.70;99.90;;;;;;5051057;28;20192;-85
2023/10/06 05:06:33;;;;;;;1.30;0.60;;;4.60;99.90;;;;;;5064850;28;20659;-86
2023/10/06 05:09:02;;;;;;;2.05;0.50;;;4.70;99.90;;;;;;5055500;28;20185;-85
2023/10/06 05:11:32;;;;;;;1.10;0.40;;;4.60;99.90;;;;;;5068385;28;20275;-87
2023/10/06 05:14:01;;;;;;;3.80;0.60;;;4.60;99.90;;;;;;5061944;28;20666;-85
2023/10/06 05:16:28;;;;;;;1.98;0.40;;;4.50;99.90;;;;;;5058821;28;20184;-86
2023/10/06 05:18:56;;;;;;;4.32;0.60;;;4.50;99.90;;;;;;5071972;28;20650;-85
2023/10/06 05:21:24;;;;;;;0.93;0.65;;;4.60;99.90;;;;;;5063834;28;20274;-85
2023/10/06 05:23:53;;;;;;;3.67;0.50;;;4.60;99.90;;;;;;5053860;28;20189;-86
2023/10/06 05:26:20;;;;;;;1.80;0.50;;;4.70;99.90;;;;;;5066086;28;20197;-86
2023/10/06 05:28:50;;;;;;;0.82;0.47;;;4.70;99.90;;;;;;5062973;28;20713;-85
2023/10/06 05:31:18;;;;;;;2.13;0.50;;;4.60;99.90;;;;;;5074408;28;20197;-88
2023/10/06 05:33:46;;;;;;;1.58;0.50;;;4.70;99.90;;;;;;5064905;28;20866;-87
2023/10/06 05:36:14;;;;;;;2.05;0.50;;;4.60;99.90;;;;;;5068668;28;20189;-86
2023/10/06 05:38:47;;;;;;;1.08;0.50;;;4.60;99.90;;;;;;5068816;28;20181;-86
2023/10/06 05:41:15;;;;;;;2.88;0.85;;;4.60;99.90;;;;;;5073032;28;20187;-85
2023/10/06 05:43:43;;;;;;;0.88;0.40;;;4.70;99.90;;;;;;5061692;28;20189;-86
2023/10/06 05:46:11;;;;;;;2.53;0.60;;;4.80;99.90;;;;;;5065636;28;20547;-86
2023/10/06 05:48:39;;;;;;;3.00;0.60;;;4.70;99.90;;;;;;5061358;28;20225;-87
2023/10/06 05:51:11;;;;;;;5.90;0.77;;;4.80;99.90;;;;;;5056746;28;20193;-87
2023/10/06 05:53:41;;;;;;;1.83;0.40;;;4.90;99.90;;;;;;5062529;28;20701;-87
2023/10/06 05:56:08;;;;;;;3.75;0.70;;;4.80;99.90;;;;;;5051919;28;20483;-87
2023/10/06 05:58:37;;;;;;;0.55;0.50;;;4.80;99.90;;;;;;5057112;28;20196;-86
2023/10/06 06:01:13;;;;;;;2.90;0.73;;;4.80;99.90;;;;;;5062268;28;20217;-86
2023/10/06 06:03:46;;;;;;;1.40;0.63;;;4.80;99.90;;;;;;5055241;28;20208;-86
2023/10/06 06:06:15;;;;;;;1.30;0.40;;;4.70;99.90;;;;;;5085765;28;20194;-86
2023/10/06 06:08:47;;;;;;;3.47;0.82;;;4.80;99.90;;;;;;5063490;28;20192;-86
2023/10/06 06:11:16;;;;;;;1.42;0.60;;;4.90;99.90;;;;;;5056932;28;20305;-86
2023/10/06 06:13:44;;;;;;;1.15;0.52;;;4.90;99.90;;;;;;5055398;28;20263;-85
2023/10/06 06:16:25;;;;;;;2.50;0.50;;;4.90;99.90;;;;;;5069946;28;20191;-85
2023/10/06 06:18:53;;;;;;;3.75;0.60;;;5.00;99.90;;;;;;5068051;28;20193;-86
2023/10/06 06:21:24;;;;;;;1.02;0.57;;;5.00;99.90;;;;;;5052849;28;20192;-86
2023/10/06 06:23:56;;;;;;;1.67;0.55;;;5.00;99.90;;;;;;5051848;28;20243;-87
2023/10/06 06:26:24;;;;;;;3.63;0.80;;;5.00;99.90;;;;;;5054754;28;20199;-87
2023/10/06 06:28:52;;;;;;;1.08;0.65;;;5.00;99.90;;;;;;5065899;28;20188;-85
2023/10/06 06:31:21;;;;;;;1.30;0.50;;;5.00;99.90;;;;;;5068538;28;20176;-87
2023/10/06 06:33:55;;;;;;;0.75;0.50;;;5.00;99.90;;;;;;5052595;28;20213;-87
2023/10/06 06:36:26;;;;;;;2.03;0.50;;;4.90;99.90;;;;;;5067166;28;20213;-87
2023/10/06 06:38:54;;;;;;;0.93;0.50;;;5.00;99.90;;;;;;5062440;28;20204;-86
2023/10/06 06:41:22;;;;;;;1.13;0.55;;;5.20;99.90;;;;;;5070393;28;20271;-87
2023/10/06 06:43:58;;;;;;;1.25;0.50;;;5.20;99.90;;;;;;5063253;28;20615;-87
2023/10/06 06:46:26;;;;;;;1.52;0.47;;;5.20;99.90;;;;;;5060247;28;20203;-87
2023/10/06 06:48:54;;;;;;;2.25;0.50;;;5.30;99.90;;;;;;5054123;28;20189;-87
2023/10/06 06:51:33;;;;;;;0.90;0.40;;;5.20;99.90;;;;;;5052316;28;20209;-88
2023/10/06 06:54:00;;;;;;;2.97;0.45;;;5.20;99.90;;;;;;5052289;28;20194;-86
2023/10/06 06:56:28;;;;;;;3.42;0.63;;;5.10;99.90;;;;;;5050439;28;20212;-86
2023/10/06 06:58:59;;;;;;;1.13;0.52;;;5.20;99.90;;;;;;5052689;28;20687;-87
2023/10/06 07:01:27;;;;;;;0.70;0.40;;;5.30;99.90;;;;;;5067947;28;20220;-86
2023/10/06 07:03:55;;;;;;;1.77;0.60;;;5.20;99.90;;;;;;5071954;28;20184;-87
2023/10/06 07:06:25;;;;;;;1.20;0.50;;;5.30;99.90;;;;;;5071979;28;20177;-86
2023/10/06 07:08:53;;;;;;;0.77;0.50;;;5.40;99.90;;;;;;5061746;28;20200;-85
2023/10/06 07:11:20;;;;;;;1.08;0.40;;;5.50;99.90;;;;;;5065894;28;20216;-88
2023/10/06 07:13:48;;;;;;;1.08;0.52;;;5.50;99.90;;;;;;5082856;28;20223;-86
2023/10/06 07:16:16;;;;;;;2.80;0.50;;;5.50;99.90;;;;;;5052029;28;20210;-87
2023/10/06 07:18:45;;;;;;;2.78;0.50;;;5.40;99.90;;;;;;5051636;28;20196;-86
2023/10/06 07:21:13;;;;;;;0.75;0.35;;;5.50;99.90;;;;;;5063206;28;20694;-86
2023/10/06 07:23:42;;;;;;;1.80;0.57;;;5.60;99.90;;;;;;5062137;28;20677;-87
2023/10/06 07:26:10;;;;;;;1.05;0.40;;;5.60;99.90;;;;;;5058732;28;20280;-86
2023/10/06 07:28:39;;;;;;;3.03;0.65;;;5.60;99.90;;;;;;5074064;28;20669;-86
2023/10/06 07:31:16;;;;;;;2.22;0.43;;;5.70;99.90;;;;;;5086905;28;20560;-85
2023/10/06 07:33:44;;;;;;;0.85;0.40;;;5.70;99.90;;;;;;5050650;28;20560;-84
2023/10/06 07:36:13;;;;;;;2.28;0.60;;;5.70;99.90;;;;;;5049465;28;20217;-85
2023/10/06 07:38:41;;;;;;;1.35;0.55;;;5.80;99.90;;;;;;5054529;28;20710;-86
2023/10/06 07:41:16;;;;;;;3.55;0.52;;;5.90;99.90;;;;;;5051752;28;20231;-86
2023/10/06 07:43:46;;;;;;;2.47;0.50;;;5.90;99.90;;;;;;5080060;28;20249;-86
2023/10/06 07:46:15;;;;;;;2.95;0.57;;;5.90;99.90;;;;;;5051117;28;20217;-87
2023/10/06 07:48:50;;;;;;;0.93;0.40;;;5.90;99.90;;;;;;5059868;28;20225;-87
2023/10/06 07:51:19;;;;;;;0.82;0.40;;;6.00;99.90;;;;;;5100785;28;20204;-86
2023/10/06 07:53:48;;;;;;;0.52;0.30;;;6.00;99.90;;;;;;5053093;28;20676;-87
2023/10/06 07:56:18;;;;;;;1.48;0.50;;;6.10;99.90;;;;;;5069343;28;20199;-86
2023/10/06 07:58:46;;;;;;;2.08;0.63;;;6.10;99.90;;;;;;5051273;28;20189;-87
2023/10/06 08:01:14;;;;;;;0.88;0.40;;;6.10;99.90;;;;;;5056985;28;20185;-87
2023/10/06 08:03:42;;;;;;;0.85;0.40;;;6.10;99.90;;;;;;5048079;28;20193;-85
2023/10/06 08:06:13;;;;;;;1.25;0.63;;;6.10;99.90;;;;;;5041853;28;20192;-88
2023/10/06 08:08:41;;;;;;;1.42;0.40;;;6.20;99.90;;;;;;5057221;28;20667;-84
2023/10/06 08:11:09;;;;;;;2.28;0.40;;;6.40;99.90;;;;;;5049647;28;20185;-87
2023/10/06 08:13:38;;;;;;;0.90;0.30;;;6.30;99.90;;;;;;5049409;28;20314;-86
2023/10/06 08:16:08;;;;;;;3.58;0.57;;;6.40;99.90;;;;;;5051291;28;20243;-87
2023/10/06 08:18:36;;;;;;;2.05;0.40;;;6.40;99.90;;;;;;5087174;28;20185;-88
2023/10/06 08:21:03;;;;;;;0.40;0.40;;;6.40;99.90;;;;;;5049755;28;20177;-87
2023/10/06 08:23:32;;;;;;;1.33;0.35;;;6.50;99.90;;;;;;5050826;28;20185;-87
2023/10/06 08:26:00;;;;;;;0.77;0.40;;;6.40;99.90;;;;;;5052899;28;20204;-87
2023/10/06 08:28:31;;;;;;;0.38;0.30;;;6.50;99.90;;;;;;5058906;28;20363;-87
2023/10/06 08:31:03;;;;;;;1.55;0.40;;;6.60;99.90;;;;;;5062803;28;20193;-87
2023/10/06 08:33:31;;;;;;;0.80;0.40;;;6.60;99.90;;;;;;5059698;28;20200;-87
2023/10/06 08:36:01;;;;;;;0.40;0.25;;;6.70;99.90;;;;;;5069517;28;20185;-88
2023/10/06 08:38:30;;;;;;;0.55;0.30;;;6.80;99.90;;;;;;5067232;28;20531;-87
2023/10/06 08:41:02;;;;;;;2.05;0.50;;;6.80;99.90;;;;;;5059338;28;20630;-87
2023/10/06 08:43:32;;;;;;;0.88;0.40;;;7.00;99.90;;;;;;5080964;28;20686;-88
2023/10/06 08:46:01;;;;;;;6.45;0.75;;;6.90;99.90;;;;;;5061108;28;20251;-87
2023/10/06 08:48:35;;;;;;;0.52;0.30;;;7.00;99.90;;;;;;5048931;28;20290;-88
2023/10/06 08:51:07;;;;;;;0.52;0.38;;;7.00;99.90;;;;;;5083021;28;20540;-88
2023/10/06 08:53:42;;;;;;;0.77;0.30;;;7.00;99.90;;;;;;5049654;28;20197;-88
2023/10/06 08:56:14;;;;;;;1.23;0.50;;;6.90;99.90;;;;;;5050804;28;20180;-87
2023/10/06 08:58:44;;;;;;;3.38;0.60;;;7.10;99.90;;;;;;5050847;28;20208;-87
2023/10/06 09:01:13;;;;;;;1.55;0.60;;;7.20;99.90;;;;;;5053857;28;20731;-88
2023/10/06 09:03:41;;;;;;;1.83;0.30;;;7.30;99.90;;;;;;5049802;28;20251;-88
2023/10/06 09:06:11;;;;;;;1.85;0.45;;;7.30;99.90;;;;;;5033068;28;20263;-88
2023/10/06 09:08:41;;;;;;;0.55;0.38;;;7.40;99.90;;;;;;5049959;28;20193;-88
2023/10/06 09:11:12;;;;;;;1.00;0.50;;;7.40;99.90;;;;;;5049620;28;20843;-87
2023/10/06 09:13:40;;;;;;;4.43;0.65;;;7.40;99.90;;;;;;5050701;28;20659;-88
2023/10/06 09:16:07;;;;;;;1.23;0.30;;;7.60;99.90;;;;;;5049850;28;20746;-88
2023/10/06 09:18:39;;;;;;;1.90;0.47;;;7.60;99.90;;;;;;5052295;28;20185;-88
2023/10/06 09:21:18;;;;;;;0.88;0.43;;;7.60;99.90;;;;;;5069719;28;20169;-88
2023/10/06 09:23:46;;;;;;;2.05;0.40;;;7.60;99.90;;;;;;5050378;28;20618;-89
2023/10/06 09:26:25;;;;;;;1.45;0.50;;;7.80;99.90;;;;;;5059098;28;20181;-88
2023/10/06 09:28:55;;;;;;;2.20;0.35;;;7.90;99.90;;;;;;5071082;28;20180;-89
2023/10/06 09:31:38;;;;;;;1.00;0.50;;;8.00;99.90;;;;;;5063708;28;20193;-89
2023/10/06 09:34:07;;;;;;;1.13;0.40;;;8.10;99.90;;;;;;5082886;28;20193;-87
2023/10/06 09:36:37;;;;;;;0.60;0.30;;;8.00;99.90;;;;;;5093019;28;20197;-88
2023/10/06 09:39:16;;;;;;;1.27;0.50;;;8.10;99.90;;;;;;5059646;28;20206;-88
2023/10/06 09:41:47;;;;;;;1.45;0.47;;;8.10;99.90;;;;;;5052186;28;20819;-88
2023/10/06 09:44:18;;;;;;;1.00;0.35;;;8.30;99.90;;;;;;5067536;28;20197;-89
2023/10/06 09:46:54;;;;;;;1.30;0.35;;;8.50;99.90;;;;;;5084675;28;20225;-88
2023/10/06 09:49:22;;;;;;;0.70;0.45;;;8.60;99.90;;;;;;5068998;28;20179;-88
2023/10/06 09:51:52;;;;;;;1.17;0.47;;;8.60;99.90;;;;;;5051591;28;20587;-89
2023/10/06 09:54:20;;;;;;;1.70;0.50;;;8.80;99.90;;;;;;5055160;28;20275;-89
2023/10/06 09:56:54;;;;;;;2.92;0.40;;;8.70;99.90;;;;;;5089967;28;20184;-88
2023/10/06 09:59:25;;;;;;;1.23;0.30;;;8.80;99.90;;;;;;5074299;28;20670;-88
2023/10/06 10:01:56;;;;;;;1.13;0.40;;;8.70;99.90;;;;;;5068305;28;20178;-88
2023/10/06 10:04:30;;;;;;;3.83;0.57;;;8.70;99.90;;;;;;5053494;28;20262;-88
2023/10/06 10:07:01;;;;;;;0.77;0.50;;;8.80;99.90;;;;;;5053233;28;20299;-89
2023/10/06 10:09:34;;;;;;;0.77;0.35;;;9.00;99.90;;;;;;5053923;28;20197;-89
2023/10/06 10:12:05;;;;;;;1.20;0.50;;;9.20;99.90;;;;;;5062987;28;20216;-87
2023/10/06 10:15:12;;;;;;;1.08;0.40;;;9.20;99.90;;;;;;5072505;28;20200;-88
2023/10/06 10:18:08;;;;;;;0.90;0.45;;;9.20;99.90;;;;;;5072384;28;20192;-89
2023/10/06 10:20:37;;;;;;;1.77;0.70;;;9.10;99.90;;;;;;5067420;28;20215;-86
2023/10/06 10:23:06;;;;;;;1.45;0.50;;;8.70;99.90;;;;;;5067728;28;20184;-89
2023/10/06 10:25:36;;;;;;;1.85;0.50;;;8.70;99.90;;;;;;5064589;28;20193;-89
2023/10/06 10:28:26;;;;;;;1.95;0.57;;;8.90;99.90;;;;;;5063239;28;20189;-90
2023/10/06 10:30:59;;;;;;;1.38;0.60;;;9.40;99.90;;;;;;5053702;28;20188;-89
2023/10/06 10:33:33;;;;;;;1.13;0.60;;;9.40;99.90;;;;;;5060167;28;20193;-89
2023/10/06 10:36:21;;;;;;;2.45;0.40;;;9.10;99.90;;;;;;5066531;28;20294;-88
2023/10/06 10:39:15;;;;;;;2.95;0.60;;;9.10;99.90;;;;;;5105367;28;20237;-90
2023/10/06 10:42:12;;;;;;;1.90;0.40;;;9.20;99.90;;;;;;5052731;28;20189;-89
2023/10/06 10:45:47;;;;;;;2.60;0.50;;;9.50;99.90;;;;;;5070185;28;20673;-89
2023/10/06 10:49:05;;;;;;;1.13;0.57;;;9.80;99.90;;;;;;5051101;28;20232;-89
2023/10/06 10:51:58;;;;;;;0.93;0.50;;;10.00;99.90;;;;;;5068780;28;20743;-88
2023/10/06 10:54:33;;;;;;;1.63;0.50;;;9.80;99.90;;;;;;5051761;28;20284;-89
2023/10/06 10:57:15;;;;;;;11.30;0.70;;;9.60;99.90;;;;;;5055203;28;20282;-89
2023/10/06 11:03:00;;;;;;;3.45;0.60;;;9.40;99.90;;;;;;5058485;28;20191;-91
2023/10/06 11:05:28;;;;;;;2.72;0.52;;;9.50;99.90;;;;;;5065047;28;20189;-88
2023/10/06 11:07:58;;;;;;;1.70;0.55;;;9.60;99.90;;;;;;5052108;28;20189;-90
2023/10/06 11:10:30;;;;;;;0.60;0.40;;;9.90;99.90;;;;;;5056168;28;20220;-89
2023/10/06 11:13:19;;;;;;;2.72;0.40;;;10.10;99.90;;;;;;5067157;28;20193;-89
2023/10/06 11:15:50;;;;;;;1.58;0.52;;;9.90;99.90;;;;;;5072552;28;20725;-90
2023/10/06 11:18:20;;;;;;;3.55;0.43;;;10.30;99.90;;;;;;5046456;28;20283;-88
2023/10/06 11:20:48;;;;;;;1.38;0.63;;;10.30;99.90;;;;;;5053711;28;20201;-89
2023/10/06 11:23:15;;;;;;;0.90;0.47;;;10.00;99.90;;;;;;5058065;28;20716;-89
2023/10/06 11:25:48;;;;;;;2.35;0.65;;;9.70;99.90;;;;;;5060519;28;20181;-89
2023/10/06 11:28:16;;;;;;;2.38;0.50;;;9.60;99.90;;;;;;5058292;28;20192;-88
2023/10/06 11:30:43;;;;;;;0.68;0.40;;;9.70;99.90;;;;;;5065043;28;20189;-89
2023/10/06 11:33:14;;;;;;;1.90;0.40;;;10.20;99.90;;;;;;5069528;28;20192;-89
2023/10/06 11:35:41;;;;;;;1.55;0.70;;;10.50;99.90;;;;;;5071121;28;20213;-88
2023/10/06 11:38:11;;;;;;;5.95;0.80;;;10.40;99.90;;;;;;5071296;28;20273;-89
2023/10/06 11:40:40;;;;;;;1.67;0.60;;;10.10;99.90;;;;;;5071508;28;20555;-88
2023/10/06 11:43:13;;;;;;;1.42;0.70;;;9.80;99.90;;;;;;5054713;28;20558;-90
2023/10/06 11:45:42;;;;;;;1.63;0.68;;;9.70;99.90;;;;;;5068582;28;20209;-89
2023/10/06 11:48:24;;;;;;;1.42;0.63;;;9.50;99.90;;;;;;5085021;28;20229;-88
2023/10/06 11:51:18;;;;;;;1.33;0.55;;;9.50;99.90;;;;;;5069518;28;20235;-89
2023/10/06 11:53:46;;;;;;;2.55;0.43;;;9.50;99.90;;;;;;5056664;28;20225;-90
2023/10/06 11:56:19;;;;;;;2.17;0.65;;;9.40;99.90;;;;;;5053740;28;20197;-90
2023/10/06 11:58:48;;;;;;;1.40;0.50;;;9.30;99.90;;;;;;5055705;28;20257;-90
2023/10/06 12:01:32;;;;;;;1.98;0.57;;;9.20;99.90;;;;;;5057180;28;20188;-90
2023/10/06 12:04:01;;;;;;;2.08;0.60;;;9.30;99.90;;;;;;5052211;28;20177;-90
2023/10/06 12:06:42;;;;;;;5.20;0.65;;;9.30;99.90;;;;;;5083665;28;20276;-88
2023/10/06 12:09:23;;;;;;;1.83;0.65;;;9.30;99.90;;;;;;5073773;28;20277;-88
2023/10/06 12:11:55;;;;;;;3.85;0.70;;;9.30;99.90;;;;;;5055674;28;20227;-89
2023/10/06 12:14:25;;;;;;;1.38;0.55;;;9.40;99.90;;;;;;5064454;28;20196;-89
2023/10/06 12:16:54;;;;;;;2.10;0.60;;;9.40;99.90;;;;;;5070859;28;20185;-89
2023/10/06 12:19:25;;;;;;;1.55;0.77;;;9.30;99.90;;;;;;5059377;28;20185;-90
2023/10/06 12:21:53;;;;;;;3.05;0.63;;;9.20;99.90;;;;;;5050234;28;20193;-90
2023/10/06 12:24:22;;;;;;;5.32;0.80;;;9.10;99.90;;;;;;5034382;28;20193;-88
2023/10/06 12:26:50;;;;;;;2.88;0.90;;;9.10;99.90;;;;;;5062166;28;20224;-91
2023/10/06 12:29:17;;;;;;;3.45;0.77;;;9.20;99.90;;;;;;5065950;28;20191;-89
2023/10/06 12:31:46;;;;;;;2.97;0.88;;;9.20;99.90;;;;;;5059285;28;20203;-90
2023/10/06 12:34:16;;;;;;;2.83;0.70;;;9.10;99.90;;;;;;5056889;28;20209;-90
2023/10/06 12:36:48;;;;;;;3.28;0.80;;;9.30;99.90;;;;;;5067895;28;20534;-90
2023/10/06 12:39:17;;;;;;;1.15;0.75;;;9.30;99.90;;;;;;5063377;28;20604;-89
2023/10/06 12:41:47;;;;;;;2.90;0.70;;;9.40;99.90;;;;;;5050711;28;20225;-90
2023/10/06 12:44:16;;;;;;;1.77;0.60;;;9.60;99.90;;;;;;5055924;28;20651;-89
2023/10/06 12:46:44;;;;;;;3.88;0.80;;;9.60;99.90;;;;;;5069861;28;20335;-90
2023/10/06 12:49:18;;;;;;;3.30;0.93;;;9.50;99.90;;;;;;5067015;28;20203;-90
2023/10/06 12:51:46;;;;;;;2.53;1.02;;;9.50;99.90;;;;;;5066795;28;20272;-90
2023/10/06 12:54:14;;;;;;;5.60;1.13;;;9.50;99.90;;;;;;5083677;28;20251;-89
2023/10/06 12:56:46;;;;;;;2.22;0.70;;;9.60;99.90;;;;;;5050106;28;20194;-90
2023/10/06 12:59:13;;;;;;;3.47;0.90;;;9.50;99.90;;;;;;5057993;28;20226;-89
2023/10/06 13:01:41;;;;;;;2.92;0.98;;;9.40;99.90;;;;;;5063528;28;20831;-90
2023/10/06 13:04:13;;;;;;;3.38;0.88;;;9.40;99.90;;;;;;5051542;28;20189;-88
2023/10/06 13:06:41;;;;;;;1.90;0.80;;;9.50;99.90;;;;;;5069411;28;20251;-89
2023/10/06 13:09:17;;;;;;;1.52;0.70;;;9.70;99.90;;;;;;5070076;28;20593;-89
2023/10/06 13:11:44;;;;;;;1.80;0.90;;;9.80;99.90;;;;;;5058318;28;20188;-89
2023/10/06 13:14:15;;;;;;;3.22;0.85;;;9.90;99.90;;;;;;5071768;28;20212;-89
2023/10/06 13:16:43;;;;;;;3.85;1.10;;;10.20;99.90;;;;;;5045576;28;20661;-89
2023/10/06 13:19:11;;;;;;;3.25;1.02;;;10.50;99.90;;;;;;5058976;28;20189;-91
2023/10/06 13:21:38;;;;;;;2.17;0.82;;;10.70;99.90;;;;;;5067846;28;20627;-90
2023/10/06 13:24:06;;;;;;;2.17;1.00;;;10.50;99.90;;;;;;5050268;28;20300;-89
2023/10/06 13:26:40;;;;;;;2.00;0.88;;;10.20;99.90;;;;;;5070902;28;20193;-91
2023/10/06 13:29:11;;;;;;;2.65;0.80;;;10.20;99.90;;;;;;5055539;28;20953;-91